Terminal Aerodrome Forecast
Issued by NWS

Home | Current Version | Previous Version | Text Only | Print | Product List | Glossary On
Versions: 1 2 3 4 5 6 7 8 9 10 11 12 13 14 15
000
FTUS41 KBTV 070534
TAFMPV
TAF
KMPV 070534Z 0706/0806 00000KT P6SM SKC
     FM071200 17011KT P6SM BKN050
     FM071500 18012G20KT P6SM VCSH BKN040
     FM072300 19010KT P6SM BKN050
     FM080500 21006KT P6SM -SHRA BKN080=

USA.gov is the U.S. government's official web portal to all federal, state and local government web resources and services.